• Join FlightAware (Why Join?)
  • Login
  • US Flag 
10:47AM EDT


 

Airport Tracker/Info


-or-


 

Live Flight TrackerFlight Track Log ✈ N661WL ✈ 22-Sep-2013 ✈ KHSP - KABY

Flight Track Log - Related Links

Times and Time Zones

All times are in EDT time to prevent confusion due to time zone crossing. See the N661WL flight status page for this flight to view local times or setup timezone preferences in your user account.

Time Position Orientation Groundspeed Altitude Reporting Facility
EDT Latitude Longitude Course Direction KTS MPH feet Rate Location/Type
09:55AM 37.8750 -79.8933 214° Southwest 179 206 6,100  Level Washington Center
09:56AM 37.8406 -79.9228 214° Southwest 159 183 7,000 780 Climbing Washington Center
09:57AM 37.8042 -79.9469 208° Southwest 153 176 7,700 540 Climbing Washington Center
09:58AM 37.7719 -79.9742 214° Southwest 148 170 8,100 180 Climbing Washington Center
09:59AM 37.7292 -80.0031 208° Southwest 161 185 8,100 -60 Level Washington Center
10:00AM 37.6842 -80.0372 211° Southwest 175 201 8,000 -60 Descending Washington Center
10:01AM 37.6392 -80.0711 211° Southwest 187 215 8,000  Level Washington Center
10:02AM 37.5897 -80.1075 210° Southwest 192 221 8,000  Level Washington Center
10:03AM 37.5447 -80.1417 211° Southwest 192 221 8,100  Climbing Washington Center
10:04AM 37.4975 -80.1756 210° Southwest 192 221 8,000  Descending Washington Center
10:05AM 37.4567 -80.2069 211° Southwest 192 221 8,100  Climbing Washington Center
10:06AM 37.4094 -80.2408 210° Southwest 192 221 8,000 -60 Descending Washington Center
10:06AM 37.3703 -80.2656 207° Southwest 213 245 8,000  Level Atlanta Center
10:07AM 37.3294 -80.2936 209° Southwest 200 230 8,000  Level Atlanta Center
10:08AM 37.2825 -80.3272 210° Southwest 200 230 8,000  Level Atlanta Center
10:09AM 37.2356 -80.3633 211° Southwest 200 230 8,000  Level Atlanta Center
10:10AM 37.1844 -80.3994 209° Southwest 200 230 8,100  Climbing Atlanta Center
10:11AM 37.1375 -80.4331 210° Southwest 200 230 8,000  Descending Atlanta Center
10:12AM 37.0906 -80.4664 210° Southwest 200 230 8,100  Climbing Atlanta Center
10:13AM 37.0436 -80.5022 211° Southwest 200 230 8,000  Descending Atlanta Center
10:14AM 37.0028 -80.5328 211° Southwest 200 230 8,100  Climbing Atlanta Center
10:15AM 36.9558 -80.5658 209° Southwest 200 230 8,100  Level Atlanta Center
10:16AM 36.9089 -80.5967 208° Southwest 200 230 8,100 -60 Level Atlanta Center
10:17AM 36.8619 -80.6322 211° Southwest 200 230 8,000  Descending Atlanta Center
10:18AM 36.8128 -80.6708 212° Southwest 200 230 8,100  Climbing Atlanta Center
10:19AM 36.7658 -80.7011 207° Southwest 200 230 8,100 -60 Level Atlanta Center
10:20AM 36.7186 -80.7342 209° Southwest 200 230 8,000 -60 Descending Atlanta Center
10:21AM 36.6694 -80.7700 210° Southwest 200 230 8,000 -60 Level Atlanta Center
10:22AM 36.6244 -80.8003 208° Southwest 200 230 7,900  Descending Atlanta Center
10:23AM 36.5775 -80.8358 211° Southwest 200 230 8,000  Climbing Atlanta Center
10:24AM 36.5303 -80.8661 207° Southwest 200 230 8,000  Level Atlanta Center
10:25AM 36.4833 -80.9014 211° Southwest 195 224 8,000  Level Atlanta Center
10:26AM 36.4342 -80.9369 210° Southwest 200 230 8,000  Level Atlanta Center
10:27AM 36.3869 -80.9722 211° Southwest 200 230 8,000  Level Atlanta Center
10:28AM 36.3461 -81.0022 211° Southwest 205 236 8,000  Level Atlanta Center
10:29AM 36.2969 -81.0375 210° Southwest 205 236 8,000  Level Atlanta Center
10:30AM 36.2497 -81.0703 209° Southwest 205 236 8,000  Level Atlanta Center
10:31AM 36.2025 -81.1028 209° Southwest 205 236 8,000  Level Atlanta Center
10:32AM 36.1553 -81.1381 211° Southwest 200 230 8,000  Level Atlanta Center
10:33AM 36.1081 -81.1706 209° Southwest 205 236 8,000  Level Atlanta Center
10:34AM 36.0611 -81.2056 211° Southwest 205 236 8,000  Level Atlanta Center
10:35AM 36.0097 -81.2408 209° Southwest 205 236 8,000  Level Atlanta Center
10:36AM 35.9606 -81.2758 210° Southwest 205 236 8,000  Level Atlanta Center
10:37AM 35.9133 -81.3108 211° Southwest 205 236 8,000  Level Atlanta Center
10:38AM 35.8658 -81.3431 209° Southwest 205 236 8,000  Level Atlanta Center
10:39AM 35.8167 -81.3781 210° Southwest 205 236 8,000  Level Atlanta Center
10:40AM 35.7694 -81.4128 211° Southwest 205 236 8,000  Level Atlanta Center
10:41AM 35.7200 -81.4450 208° Southwest 205 236 8,000  Level Atlanta Center
10:42AM 35.6728 -81.4797 211° Southwest 205 236 8,000  Level Atlanta Center
10:43AM 35.6233 -81.5119 208° Southwest 205 236 8,000  Level Atlanta Center
10:44AM 35.5781 -81.5442 210° Southwest 205 236 8,000  Level Atlanta Center
10:45AM 35.5308 -81.5761 209° Southwest 205 236 8,000  Level Atlanta Center
10:46AM 35.4836 -81.6081 209° Southwest 205 236 8,000  Level Atlanta Center
10:47AM 35.4342 -81.6428 210° Southwest 205 236 8,000  Level Atlanta Center
10:48AM 35.3889 -81.6747 210° Southwest 205 236 8,000  Level Atlanta Center
10:49AM 35.3394 -81.7092 210° Southwest 205 236 8,000  Level Atlanta Center
10:50AM 35.3003 -81.7358 209° Southwest 200 230 8,000  Level Atlanta Center
10:51AM 35.2508 -81.7678 208° Southwest 200 230 8,000  Level Atlanta Center
10:52AM 35.2056 -81.7994 210° Southwest 200 230 8,000  Level Atlanta Center
10:53AM 35.1603 -81.8336 212° Southwest 200 230 8,000  Level Atlanta Center
10:54AM 35.1128 -81.8653 209° Southwest 200 230 8,000  Level Atlanta Center
10:55AM 35.0653 -81.8969 209° Southwest 200 230 8,000  Level Atlanta Center
10:56AM 35.0136 -81.9314 209° Southwest 200 230 8,000  Level Atlanta Center
10:58AM 34.9641 -81.9602 205° Southwest  Level FlightAware Approximate
11:05AM 34.6412 -82.1698 209° Southwest  Level FlightAware Approximate
11:06AM 34.5956 -82.2007 209° Southwest  Level FlightAware Approximate
11:07AM 34.5499 -82.2315 209° Southwest  Level FlightAware Approximate
11:08AM 34.5042 -82.2623 209° Southwest  Level FlightAware Approximate
11:09AM 34.4585 -82.2931 209° Southwest  Level FlightAware Approximate
11:10AM 34.4128 -82.3239 209° Southwest  Level FlightAware Approximate
11:10AM 34.3881 -82.3597 209° Southwest 228 262 8,100  Level Atlanta Center
11:11AM 34.3671 -82.3546 209° Southwest  Level FlightAware Approximate
11:11AM 34.3444 -82.3858 206° Southwest 209 241 8,000  Level Atlanta Center
11:12AM 34.3214 -82.3853 209° Southwest  Level FlightAware Approximate
11:12AM 34.2928 -82.4144 205° Southwest 206 237 8,000  Level Atlanta Center
11:13AM 34.2757 -82.4159 209° Southwest  Level FlightAware Approximate
11:13AM 34.2472 -82.4456 209° Southwest 199 229 8,000  Level Atlanta Center
11:14AM 34.2300 -82.4465 209° Southwest  Level FlightAware Approximate
11:14AM 34.1997 -82.4767 208° Southwest 194 223 8,000  Level Atlanta Center
11:15AM 34.1500 -82.5100 209° Southwest 194 223 8,000  Level Atlanta Center
11:16AM 34.1044 -82.5411 209° Southwest 194 223 8,000  Level Atlanta Center
11:17AM 34.0589 -82.5719 209° Southwest 194 223 8,000  Level Atlanta Center
11:18AM 34.0114 -82.6053 210° Southwest 194 223 8,000  Level Atlanta Center
11:19AM 33.9617 -82.6361 207° Southwest 199 229 8,000  Level Atlanta Center
11:20AM 33.9139 -82.6694 210° Southwest 199 229 8,000  Level Atlanta Center
11:21AM 33.8661 -82.6978 206° Southwest 199 229 8,000  Level Atlanta Center
11:22AM 33.8186 -82.7311 210° Southwest 199 229 8,000  Level Atlanta Center
11:23AM 33.7750 -82.7592 208° Southwest 199 229 8,000  Level Atlanta Center
11:25AM 33.6890 -82.8123 207° Southwest  Level FlightAware Approximate
11:29AM 33.4833 -82.9500 209° Southwest 194 223 8,000  Level Atlanta TRACON
11:30AM 33.4333 -82.9833 209° Southwest 190 219 8,000  Level Atlanta TRACON
11:31AM 33.3833 -83.0167 209° Southwest 195 224 8,000  Level Atlanta TRACON
11:32AM 33.3635 -83.0132 209° Southwest  Level FlightAware Approximate
11:32AM 33.3333 -83.0500 209° Southwest 191 220 8,000  Level Atlanta TRACON
11:33AM 33.3178 -83.0435 209° Southwest  Level FlightAware Approximate
11:33AM 33.2833 -83.0833 209° Southwest 192 221 8,000  Level Atlanta TRACON
11:34AM 33.2721 -83.0739 209° Southwest  Level FlightAware Approximate
11:34AM 33.2500 -83.1000 203° Southwest 191 220 8,000  Level Atlanta TRACON
11:35AM 33.2000 -83.1333 209° Southwest 190 219 8,000  Level Atlanta TRACON
11:36AM 33.1500 -83.1667 209° Southwest 191 220 8,000  Level Atlanta TRACON
11:37AM 33.1000 -83.2000 209° Southwest 190 219 8,000  Level Atlanta TRACON
11:38AM 33.0500 -83.2333 209° Southwest 191 220 8,000  Level Atlanta TRACON
11:39AM 33.0167 -83.2500 203° Southwest 190 219 8,000  Level Atlanta TRACON
11:40AM 32.9667 -83.2833 209° Southwest 190 219 8,000  Level Atlanta TRACON
11:41AM 32.9167 -83.3167 209° Southwest 192 221 8,000  Level Atlanta TRACON
11:42AM 32.8667 -83.3500 209° Southwest 191 220 8,000  Level Atlanta TRACON
11:43AM 32.8167 -83.3833 209° Southwest 190 219 8,000  Level Atlanta TRACON
11:44AM 32.7833 -83.4000 203° Southwest 187 215 8,000  Level Atlanta TRACON
11:45AM 32.7333 -83.4333 209° Southwest 185 213 8,000  Level Atlanta TRACON
11:46AM 32.7000 -83.4667 220° Southwest 184 212 8,000  Level Atlanta TRACON
11:47AM 32.6500 -83.4833 196° South 185 213 8,000  Level Atlanta TRACON
11:48AM 32.6000 -83.5167 209° Southwest 187 215 8,000  Level Atlanta TRACON
11:49AM 32.5500 -83.5500 209° Southwest 187 215 8,000  Level Atlanta TRACON
11:50AM 32.5167 -83.5833 220° Southwest 184 212 8,000  Level Atlanta TRACON
11:51AM 32.4667 -83.6000 196° South 181 208 8,000  Level Atlanta TRACON
11:52AM 32.4167 -83.6333 209° Southwest 180 207 8,000  Level Atlanta TRACON
11:53AM 32.3833 -83.6667 220° Southwest 179 206 8,000  Level Atlanta TRACON
11:54AM 32.3333 -83.6833 196° South 179 206 8,000  Level Atlanta TRACON
11:55AM 32.3000 -83.7167 220° Southwest 179 206 8,000  Level Atlanta TRACON
11:56AM 32.2500 -83.7500 209° Southwest 181 208 8,000  Level Atlanta TRACON
11:57AM 32.2158 -83.7667 202° Southwest 176 203 8,000  Level Jacksonville Center
11:58AM 32.1697 -83.7933 206° Southwest 181 208 8,000  Level Jacksonville Center
11:59AM 32.1275 -83.8222 210° Southwest 181 208 8,000  Level Jacksonville Center
12:00PM 32.0836 -83.8514 209° Southwest 181 208 8,000  Level Jacksonville Center
12:01PM 32.0375 -83.8778 206° Southwest 181 208 8,000  Level Jacksonville Center
12:02PM 31.9956 -83.9067 210° Southwest 181 208 8,000  Level Jacksonville Center
12:03PM 31.9492 -83.9356 208° Southwest 181 208 8,000 -300 Level Jacksonville Center
12:04PM 31.9031 -83.9619 206° Southwest 181 208 7,400 -540 Descending Jacksonville Center
12:05PM 31.8592 -83.9908 209° Southwest 181 208 7,000 -600 Descending Jacksonville Center
12:06PM 31.8108 -84.0219 209° Southwest 181 208 6,300 -600 Descending Jacksonville Center
12:07PM 31.7644 -84.0508 208° Southwest 181 208 5,800 -600 Descending Jacksonville Center
12:08PM 31.7206 -84.0794 209° Southwest 181 208 5,100 -660 Descending Jacksonville Center
12:09PM 31.6764 -84.1131 213° Southwest 186 214 4,500 -600 Descending Jacksonville Center
12:10PM 31.6361 -84.1517 219° Southwest 186 214 4,000 -300 Descending Jacksonville Center
12:11PM 31.6025 -84.1856 221° Southwest 186 214 4,000  Level Jacksonville Center
12:12PM 31.5603 -84.2286 221° Southwest 181 208 4,000 -120 Level Jacksonville Center
12:13PM 31.5264 -84.2672 224° Southwest 176 203 3,800 -300 Descending Jacksonville Center
12:14PM 31.5050 -84.3108 240° Southwest 176 203 3,400 -420 Descending Jacksonville Center
12:15PM 31.4817 -84.3614 242° Southwest 176 203 3,000 -240 Descending Jacksonville Center
12:16PM 31.4603 -84.4075 241° Southwest 176 203 3,000  Level Jacksonville Center
12:17PM 31.4328 -84.4242 207° Southwest 161 185 3,000  Level Jacksonville Center
12:18PM 31.3997 -84.3919 140° Southeast 105 121 3,000  Level Jacksonville Center
12:19PM 31.3981 -84.3553 93° East 97 112 3,000  Level Jacksonville Center
12:20PM 31.4194 -84.3144 58° Northeast 103 119 3,000 -300 Level Jacksonville Center
12:21PM 31.4469 -84.2856 42° Northeast 116 133 2,400 -660 Descending Jacksonville Center
12:22PM 31.4744 -84.2567 42° Northeast 127 146 1,700 -660 Descending Jacksonville Center
12:23PM 31.4975 -84.2328 41° Northeast 121 139 1,100 -600 Descending Jacksonville Center
12:24PM 31.5208 -84.2086 41° Northeast 115 132 500 -600 Descending Jacksonville Center